Terminal Aerodrome Forecast
Issued by NWS St Louis, MO

Home | Current Version | Previous Version | Graphics & Text | Print | Product List | Glossary On
Versions: 1 2 3 4 5 6 7 8 9 10 11 12 13 14 15 16 17 18 19
000
FTUS43 KLSX 180537
TAFCOU
TAF
KCOU 180537Z 1806/1906 20014KT P6SM FEW025 OVC040
     FM181200 30014G24KT P6SM -SHRA OVC020
     FM181400 31016G28KT 5SM -SHRA BR OVC015
     FM182000 31019G35KT P6SM BKN040
     FM190400 31009KT P6SM FEW250=

USA.gov is the U.S. government's official web portal to all federal, state and local government web resources and services.